sensor_id;sensor_type;location;lat;lon;timestamp;P1;durP1;ratioP1;P2;durP2;ratioP2
54143;SDS011;40050;47.324;18.792;2023-07-28T00:00:11;2.99;;;1.99;;
54143;SDS011;40050;47.324;18.792;2023-07-28T00:02:12;2.60;;;1.99;;
54143;SDS011;40050;47.324;18.792;2023-07-28T00:04:13;2.50;;;1.89;;
54143;SDS011;40050;47.324;18.792;2023-07-28T00:06:13;4.53;;;2.09;;
54143;SDS011;40050;47.324;18.792;2023-07-28T00:08:14;3.46;;;1.99;;
54143;SDS011;40050;47.324;18.792;2023-07-28T00:10:15;3.08;;;2.19;;
54143;SDS011;40050;47.324;18.792;2023-07-28T00:12:16;3.94;;;1.89;;
54143;SDS011;40050;47.324;18.792;2023-07-28T00:14:17;3.17;;;2.09;;
54143;SDS011;40050;47.324;18.792;2023-07-28T00:16:18;3.17;;;2.19;;
54143;SDS011;40050;47.324;18.792;2023-07-28T00:18:19;2.79;;;1.89;;
54143;SDS011;40050;47.324;18.792;2023-07-28T00:20:20;3.36;;;2.29;;
54143;SDS011;40050;47.324;18.792;2023-07-28T00:22:21;3.07;;;2.09;;
54143;SDS011;40050;47.324;18.792;2023-07-28T00:24:22;3.84;;;2.09;;
54143;SDS011;40050;47.324;18.792;2023-07-28T00:26:23;3.07;;;2.19;;
54143;SDS011;40050;47.324;18.792;2023-07-28T00:28:24;4.52;;;2.59;;
54143;SDS011;40050;47.324;18.792;2023-07-28T00:30:25;4.13;;;2.39;;
54143;SDS011;40050;47.324;18.792;2023-07-28T00:32:26;4.33;;;2.19;;
54143;SDS011;40050;47.324;18.792;2023-07-28T00:34:27;4.23;;;2.49;;
54143;SDS011;40050;47.324;18.792;2023-07-28T00:36:28;3.66;;;2.29;;
54143;SDS011;40050;47.324;18.792;2023-07-28T00:38:29;4.81;;;2.39;;
54143;SDS011;40050;47.324;18.792;2023-07-28T00:40:29;2.70;;;1.99;;
54143;SDS011;40050;47.324;18.792;2023-07-28T00:42:30;2.89;;;1.89;;
54143;SDS011;40050;47.324;18.792;2023-07-28T00:44:31;2.50;;;1.89;;
54143;SDS011;40050;47.324;18.792;2023-07-28T00:46:32;3.56;;;2.39;;
54143;SDS011;40050;47.324;18.792;2023-07-28T00:48:33;4.91;;;2.29;;
54143;SDS011;40050;47.324;18.792;2023-07-28T00:50:34;2.70;;;2.19;;
54143;SDS011;40050;47.324;18.792;2023-07-28T00:52:37;3.18;;;1.89;;
54143;SDS011;40050;47.324;18.792;2023-07-28T00:54:38;2.70;;;2.09;;
54143;SDS011;40050;47.324;18.792;2023-07-28T00:56:41;2.41;;;1.99;;
54143;SDS011;40050;47.324;18.792;2023-07-28T00:58:42;3.18;;;2.29;;
54143;SDS011;40050;47.324;18.792;2023-07-28T01:00:43;3.08;;;2.19;;
54143;SDS011;40050;47.324;18.792;2023-07-28T01:02:44;2.41;;;1.99;;
54143;SDS011;40050;47.324;18.792;2023-07-28T01:04:45;3.17;;;2.09;;
54143;SDS011;40050;47.324;18.792;2023-07-28T01:07:14;2.60;;;2.09;;
54143;SDS011;40050;47.324;18.792;2023-07-28T01:09:13;3.86;;;2.29;;
54143;SDS011;40050;47.324;18.792;2023-07-28T01:11:14;3.28;;;2.19;;
54143;SDS011;40050;47.324;18.792;2023-07-28T01:13:15;3.09;;;2.39;;
54143;SDS011;40050;47.324;18.792;2023-07-28T01:15:16;2.70;;;2.19;;
54143;SDS011;40050;47.324;18.792;2023-07-28T01:17:17;3.67;;;2.09;;
54143;SDS011;40050;47.324;18.792;2023-07-28T01:19:19;2.90;;;2.29;;
54143;SDS011;40050;47.324;18.792;2023-07-28T01:21:22;2.70;;;1.99;;
54143;SDS011;40050;47.324;18.792;2023-07-28T01:23:58;3.86;;;2.49;;
54143;SDS011;40050;47.324;18.792;2023-07-28T01:26:07;3.09;;;2.09;;
54143;SDS011;40050;47.324;18.792;2023-07-28T01:28:01;4.25;;;2.09;;
54143;SDS011;40050;47.324;18.792;2023-07-28T01:30:02;3.86;;;2.49;;
54143;SDS011;40050;47.324;18.792;2023-07-28T01:32:03;3.09;;;2.29;;
54143;SDS011;40050;47.324;18.792;2023-07-28T01:34:04;3.76;;;2.29;;
54143;SDS011;40050;47.324;18.792;2023-07-28T01:36:07;4.05;;;2.29;;
54143;SDS011;40050;47.324;18.792;2023-07-28T01:38:08;3.57;;;2.39;;
54143;SDS011;40050;47.324;18.792;2023-07-28T01:40:09;4.53;;;2.29;;
54143;SDS011;40050;47.324;18.792;2023-07-28T01:42:10;3.08;;;2.29;;
54143;SDS011;40050;47.324;18.792;2023-07-28T01:44:11;2.79;;;2.19;;
54143;SDS011;40050;47.324;18.792;2023-07-28T01:46:11;3.56;;;2.49;;
54143;SDS011;40050;47.324;18.792;2023-07-28T01:48:12;3.85;;;2.49;;
54143;SDS011;40050;47.324;18.792;2023-07-28T01:50:13;2.89;;;2.19;;
54143;SDS011;40050;47.324;18.792;2023-07-28T01:52:14;3.18;;;2.19;;
54143;SDS011;40050;47.324;18.792;2023-07-28T01:54:15;3.37;;;2.49;;
54143;SDS011;40050;47.324;18.792;2023-07-28T01:56:16;5.00;;;3.08;;
54143;SDS011;40050;47.324;18.792;2023-07-28T01:58:27;4.04;;;2.49;;
54143;SDS011;40050;47.324;18.792;2023-07-28T02:00:28;2.98;;;2.59;;
54143;SDS011;40050;47.324;18.792;2023-07-28T02:02:29;3.27;;;2.68;;
54143;SDS011;40050;47.324;18.792;2023-07-28T02:04:30;4.13;;;2.68;;
54143;SDS011;40050;47.324;18.792;2023-07-28T02:06:31;5.19;;;2.98;;
54143;SDS011;40050;47.324;18.792;2023-07-28T02:08:32;3.75;;;2.98;;
54143;SDS011;40050;47.324;18.792;2023-07-28T02:10:33;3.17;;;2.59;;
54143;SDS011;40050;47.324;18.792;2023-07-28T02:12:34;4.81;;;2.88;;
54143;SDS011;40050;47.324;18.792;2023-07-28T02:14:35;4.61;;;3.08;;
54143;SDS011;40050;47.324;18.792;2023-07-28T02:16:36;3.46;;;2.98;;
54143;SDS011;40050;47.324;18.792;2023-07-28T02:18:37;4.13;;;2.98;;
54143;SDS011;40050;47.324;18.792;2023-07-28T02:20:38;3.55;;;2.88;;
54143;SDS011;40050;47.324;18.792;2023-07-28T02:22:39;3.46;;;2.78;;
54143;SDS011;40050;47.324;18.792;2023-07-28T02:24:40;4.13;;;2.88;;
54143;SDS011;40050;47.324;18.792;2023-07-28T02:26:41;4.03;;;3.08;;
54143;SDS011;40050;47.324;18.792;2023-07-28T02:28:42;3.75;;;2.49;;
54143;SDS011;40050;47.324;18.792;2023-07-28T02:30:43;5.28;;;2.78;;
54143;SDS011;40050;47.324;18.792;2023-07-28T02:32:44;5.57;;;2.58;;
54143;SDS011;40050;47.324;18.792;2023-07-28T02:34:45;4.80;;;2.58;;
54143;SDS011;40050;47.324;18.792;2023-07-28T02:36:46;4.22;;;2.88;;
54143;SDS011;40050;47.324;18.792;2023-07-28T02:38:46;3.84;;;2.58;;
54143;SDS011;40050;47.324;18.792;2023-07-28T02:40:47;3.65;;;2.78;;
54143;SDS011;40050;47.324;18.792;2023-07-28T02:42:48;3.84;;;2.29;;
54143;SDS011;40050;47.324;18.792;2023-07-28T02:44:49;3.84;;;2.68;;
54143;SDS011;40050;47.324;18.792;2023-07-28T02:46:50;3.26;;;2.48;;
54143;SDS011;40050;47.324;18.792;2023-07-28T02:48:51;3.65;;;2.49;;
54143;SDS011;40050;47.324;18.792;2023-07-28T02:50:52;3.65;;;2.39;;
54143;SDS011;40050;47.324;18.792;2023-07-28T02:52:53;3.46;;;2.68;;
54143;SDS011;40050;47.324;18.792;2023-07-28T02:54:55;2.98;;;2.49;;
54143;SDS011;40050;47.324;18.792;2023-07-28T02:56:55;4.33;;;2.49;;
54143;SDS011;40050;47.324;18.792;2023-07-28T02:58:56;5.48;;;2.59;;
54143;SDS011;40050;47.324;18.792;2023-07-28T03:00:57;3.75;;;2.49;;
54143;SDS011;40050;47.324;18.792;2023-07-28T03:02:57;3.85;;;2.59;;
54143;SDS011;40050;47.324;18.792;2023-07-28T03:04:58;3.18;;;2.49;;
54143;SDS011;40050;47.324;18.792;2023-07-28T03:06:59;3.66;;;2.39;;
54143;SDS011;40050;47.324;18.792;2023-07-28T03:09:00;3.75;;;2.59;;
54143;SDS011;40050;47.324;18.792;2023-07-28T03:11:01;3.56;;;2.59;;
54143;SDS011;40050;47.324;18.792;2023-07-28T03:13:02;3.37;;;2.49;;
54143;SDS011;40050;47.324;18.792;2023-07-28T03:15:03;3.65;;;2.59;;
54143;SDS011;40050;47.324;18.792;2023-07-28T03:17:04;3.75;;;2.68;;
54143;SDS011;40050;47.324;18.792;2023-07-28T03:19:05;3.75;;;2.58;;
54143;SDS011;40050;47.324;18.792;2023-07-28T03:21:06;5.67;;;2.78;;
54143;SDS011;40050;47.324;18.792;2023-07-28T03:23:06;4.90;;;2.68;;
54143;SDS011;40050;47.324;18.792;2023-07-28T03:25:08;3.65;;;2.58;;
54143;SDS011;40050;47.324;18.792;2023-07-28T03:27:08;5.76;;;2.88;;
54143;SDS011;40050;47.324;18.792;2023-07-28T03:29:09;4.51;;;2.68;;
54143;SDS011;40050;47.324;18.792;2023-07-28T03:31:10;4.71;;;2.68;;
54143;SDS011;40050;47.324;18.792;2023-07-28T03:33:11;3.94;;;2.78;;
54143;SDS011;40050;47.324;18.792;2023-07-28T03:35:12;4.89;;;2.78;;
54143;SDS011;40050;47.324;18.792;2023-07-28T03:37:13;5.57;;;2.58;;
54143;SDS011;40050;47.324;18.792;2023-07-28T03:39:14;2.97;;;2.58;;
54143;SDS011;40050;47.324;18.792;2023-07-28T03:41:15;5.08;;;2.68;;
54143;SDS011;40050;47.324;18.792;2023-07-28T03:43:16;3.55;;;2.78;;
54143;SDS011;40050;47.324;18.792;2023-07-28T03:45:16;3.64;;;2.68;;
54143;SDS011;40050;47.324;18.792;2023-07-28T03:47:17;6.13;;;2.68;;
54143;SDS011;40050;47.324;18.792;2023-07-28T03:49:18;4.31;;;2.68;;
54143;SDS011;40050;47.324;18.792;2023-07-28T03:51:19;4.22;;;2.88;;
54143;SDS011;40050;47.324;18.792;2023-07-28T03:53:20;5.94;;;2.78;;
54143;SDS011;40050;47.324;18.792;2023-07-28T03:55:21;3.35;;;2.68;;
54143;SDS011;40050;47.324;18.792;2023-07-28T03:57:22;2.97;;;2.68;;
54143;SDS011;40050;47.324;18.792;2023-07-28T03:59:23;4.41;;;2.98;;
54143;SDS011;40050;47.324;18.792;2023-07-28T04:01:24;5.37;;;2.58;;
54143;SDS011;40050;47.324;18.792;2023-07-28T04:03:25;5.09;;;2.58;;
54143;SDS011;40050;47.324;18.792;2023-07-28T04:05:26;6.63;;;2.88;;
54143;SDS011;40050;47.324;18.792;2023-07-28T04:07:27;4.71;;;2.78;;
54143;SDS011;40050;47.324;18.792;2023-07-28T04:09:28;3.27;;;2.49;;
54143;SDS011;40050;47.324;18.792;2023-07-28T04:11:29;3.94;;;2.59;;
54143;SDS011;40050;47.324;18.792;2023-07-28T04:13:29;4.62;;;2.69;;
54143;SDS011;40050;47.324;18.792;2023-07-28T04:15:30;3.56;;;2.49;;
54143;SDS011;40050;47.324;18.792;2023-07-28T04:17:31;4.63;;;2.29;;
54143;SDS011;40050;47.324;18.792;2023-07-28T04:19:32;4.05;;;2.39;;
54143;SDS011;40050;47.324;18.792;2023-07-28T04:21:33;3.66;;;2.49;;
54143;SDS011;40050;47.324;18.792;2023-07-28T04:23:34;3.47;;;2.69;;
54143;SDS011;40050;47.324;18.792;2023-07-28T04:25:36;3.28;;;2.39;;
54143;SDS011;40050;47.324;18.792;2023-07-28T04:27:37;3.76;;;2.59;;
54143;SDS011;40050;47.324;18.792;2023-07-28T04:29:38;2.89;;;2.19;;
54143;SDS011;40050;47.324;18.792;2023-07-28T04:31:39;3.75;;;2.39;;
54143;SDS011;40050;47.324;18.792;2023-07-28T04:33:43;3.18;;;2.39;;
54143;SDS011;40050;47.324;18.792;2023-07-28T04:35:40;3.56;;;2.29;;
54143;SDS011;40050;47.324;18.792;2023-07-28T04:37:41;3.27;;;2.49;;
54143;SDS011;40050;47.324;18.792;2023-07-28T04:39:42;4.23;;;2.39;;
54143;SDS011;40050;47.324;18.792;2023-07-28T04:41:43;2.69;;;2.49;;
54143;SDS011;40050;47.324;18.792;2023-07-28T04:43:44;4.05;;;2.79;;
54143;SDS011;40050;47.324;18.792;2023-07-28T04:45:45;4.53;;;2.69;;
54143;SDS011;40050;47.324;18.792;2023-07-28T04:47:46;3.47;;;2.19;;
54143;SDS011;40050;47.324;18.792;2023-07-28T04:49:47;2.99;;;2.19;;
54143;SDS011;40050;47.324;18.792;2023-07-28T04:51:48;3.09;;;2.19;;
54143;SDS011;40050;47.324;18.792;2023-07-28T04:53:48;4.25;;;2.09;;
54143;SDS011;40050;47.324;18.792;2023-07-28T04:55:49;3.86;;;2.29;;
54143;SDS011;40050;47.324;18.792;2023-07-28T04:57:50;3.67;;;2.59;;
54143;SDS011;40050;47.324;18.792;2023-07-28T04:59:51;3.87;;;2.59;;
54143;SDS011;40050;47.324;18.792;2023-07-28T05:01:52;6.67;;;2.99;;
54143;SDS011;40050;47.324;18.792;2023-07-28T05:03:53;5.51;;;2.79;;
54143;SDS011;40050;47.324;18.792;2023-07-28T05:05:54;4.45;;;2.79;;
54143;SDS011;40050;47.324;18.792;2023-07-28T05:07:55;3.58;;;2.89;;
54143;SDS011;40050;47.324;18.792;2023-07-28T05:09:56;3.87;;;2.29;;
54143;SDS011;40050;47.324;18.792;2023-07-28T05:11:57;3.10;;;2.59;;
54143;SDS011;40050;47.324;18.792;2023-07-28T05:13:58;3.29;;;2.29;;
54143;SDS011;40050;47.324;18.792;2023-07-28T05:15:59;3.49;;;2.29;;
54143;SDS011;40050;47.324;18.792;2023-07-28T05:17:59;3.88;;;2.29;;
54143;SDS011;40050;47.324;18.792;2023-07-28T05:20:00;3.21;;;2.59;;
54143;SDS011;40050;47.324;18.792;2023-07-28T05:22:05;3.02;;;1.99;;
54143;SDS011;40050;47.324;18.792;2023-07-28T05:24:02;4.29;;;1.99;;
54143;SDS011;40050;47.324;18.792;2023-07-28T05:26:03;3.02;;;2.19;;
54143;SDS011;40050;47.324;18.792;2023-07-28T05:28:04;3.02;;;2.09;;
54143;SDS011;40050;47.324;18.792;2023-07-28T05:30:05;3.51;;;2.09;;
54143;SDS011;40050;47.324;18.792;2023-07-28T05:32:06;2.92;;;2.19;;
54143;SDS011;40050;47.324;18.792;2023-07-28T05:34:09;2.43;;;2.09;;
54143;SDS011;40050;47.324;18.792;2023-07-28T05:36:10;2.82;;;1.99;;
54143;SDS011;40050;47.324;18.792;2023-07-28T05:38:11;3.40;;;2.29;;
54143;SDS011;40050;47.324;18.792;2023-07-28T05:40:12;3.21;;;2.09;;
54143;SDS011;40050;47.324;18.792;2023-07-28T05:42:13;3.80;;;2.19;;
54143;SDS011;40050;47.324;18.792;2023-07-28T05:44:14;2.63;;;1.89;;
54143;SDS011;40050;47.324;18.792;2023-07-28T05:46:18;2.82;;;1.89;;
54143;SDS011;40050;47.324;18.792;2023-07-28T05:48:19;2.53;;;2.09;;
54143;SDS011;40050;47.324;18.792;2023-07-28T05:50:20;3.21;;;1.99;;
54143;SDS011;40050;47.324;18.792;2023-07-28T05:52:20;2.24;;;1.89;;
54143;SDS011;40050;47.324;18.792;2023-07-28T05:54:21;2.73;;;1.89;;
54143;SDS011;40050;47.324;18.792;2023-07-28T05:56:22;2.92;;;1.89;;
54143;SDS011;40050;47.324;18.792;2023-07-28T05:58:23;2.83;;;1.99;;
54143;SDS011;40050;47.324;18.792;2023-07-28T06:00:24;6.05;;;1.99;;
54143;SDS011;40050;47.324;18.792;2023-07-28T06:02:25;7.80;;;2.19;;
54143;SDS011;40050;47.324;18.792;2023-07-28T06:04:26;3.90;;;1.70;;
54143;SDS011;40050;47.324;18.792;2023-07-28T06:06:27;2.44;;;1.50;;
54143;SDS011;40050;47.324;18.792;2023-07-28T06:08:28;2.84;;;1.60;;
54143;SDS011;40050;47.324;18.792;2023-07-28T06:10:29;3.72;;;1.80;;
54143;SDS011;40050;47.324;18.792;2023-07-28T06:12:30;4.11;;;1.70;;
54143;SDS011;40050;47.324;18.792;2023-07-28T06:14:30;2.64;;;1.70;;
54143;SDS011;40050;47.324;18.792;2023-07-28T06:16:31;2.36;;;1.70;;
54143;SDS011;40050;47.324;18.792;2023-07-28T06:18:32;3.64;;;1.60;;
54143;SDS011;40050;47.324;18.792;2023-07-28T06:20:34;2.17;;;1.60;;
54143;SDS011;40050;47.324;18.792;2023-07-28T06:22:35;4.43;;;1.70;;
54143;SDS011;40050;47.324;18.792;2023-07-28T06:24:36;3.84;;;1.70;;
54143;SDS011;40050;47.324;18.792;2023-07-28T06:26:36;2.36;;;1.80;;
54143;SDS011;40050;47.324;18.792;2023-07-28T06:28:37;2.07;;;1.60;;
54143;SDS011;40050;47.324;18.792;2023-07-28T06:30:39;2.56;;;1.70;;
54143;SDS011;40050;47.324;18.792;2023-07-28T06:32:40;2.66;;;1.80;;
54143;SDS011;40050;47.324;18.792;2023-07-28T06:34:41;1.97;;;1.50;;
54143;SDS011;40050;47.324;18.792;2023-07-28T06:36:41;1.68;;;1.40;;
54143;SDS011;40050;47.324;18.792;2023-07-28T06:38:42;2.07;;;1.60;;
54143;SDS011;40050;47.324;18.792;2023-07-28T06:40:43;1.78;;;1.50;;
54143;SDS011;40050;47.324;18.792;2023-07-28T06:42:44;2.17;;;1.60;;
54143;SDS011;40050;47.324;18.792;2023-07-28T06:44:45;3.16;;;1.60;;
54143;SDS011;40050;47.324;18.792;2023-07-28T06:46:46;3.26;;;1.50;;
54143;SDS011;40050;47.324;18.792;2023-07-28T06:48:47;2.17;;;1.60;;
54143;SDS011;40050;47.324;18.792;2023-07-28T06:50:48;1.88;;;1.70;;
54143;SDS011;40050;47.324;18.792;2023-07-28T06:52:49;2.27;;;1.60;;
54143;SDS011;40050;47.324;18.792;2023-07-28T06:54:50;1.78;;;1.40;;
54143;SDS011;40050;47.324;18.792;2023-07-28T06:56:51;2.77;;;1.50;;
54143;SDS011;40050;47.324;18.792;2023-07-28T06:58:51;2.18;;;1.30;;
54143;SDS011;40050;47.324;18.792;2023-07-28T07:00:52;2.57;;;1.50;;
54143;SDS011;40050;47.324;18.792;2023-07-28T07:02:53;2.38;;;1.30;;
54143;SDS011;40050;47.324;18.792;2023-07-28T07:04:54;1.78;;;1.30;;
54143;SDS011;40050;47.324;18.792;2023-07-28T07:06:55;2.57;;;1.30;;
54143;SDS011;40050;47.324;18.792;2023-07-28T07:08:56;2.68;;;1.40;;
54143;SDS011;40050;47.324;18.792;2023-07-28T07:10:57;3.56;;;1.30;;
54143;SDS011;40050;47.324;18.792;2023-07-28T07:12:58;2.67;;;1.50;;
54143;SDS011;40050;47.324;18.792;2023-07-28T07:14:59;3.07;;;1.40;;
54143;SDS011;40050;47.324;18.792;2023-07-28T07:16:59;3.07;;;1.60;;
54143;SDS011;40050;47.324;18.792;2023-07-28T07:19:00;3.87;;;1.60;;
54143;SDS011;40050;47.324;18.792;2023-07-28T07:21:04;1.89;;;1.40;;
54143;SDS011;40050;47.324;18.792;2023-07-28T07:23:05;1.69;;;1.30;;
54143;SDS011;40050;47.324;18.792;2023-07-28T07:25:06;2.98;;;1.40;;
54143;SDS011;40050;47.324;18.792;2023-07-28T07:27:07;2.28;;;1.50;;
54143;SDS011;40050;47.324;18.792;2023-07-28T07:29:08;3.47;;;1.60;;
54143;SDS011;40050;47.324;18.792;2023-07-28T07:31:12;2.98;;;1.40;;
54143;SDS011;40050;47.324;18.792;2023-07-28T07:33:10;2.48;;;1.60;;
54143;SDS011;40050;47.324;18.792;2023-07-28T07:35:11;2.58;;;1.50;;
54143;SDS011;40050;47.324;18.792;2023-07-28T07:37:12;3.68;;;1.60;;
54143;SDS011;40050;47.324;18.792;2023-07-28T07:39:13;3.28;;;1.60;;
54143;SDS011;40050;47.324;18.792;2023-07-28T07:41:14;2.09;;;1.50;;
54143;SDS011;40050;47.324;18.792;2023-07-28T07:43:16;2.29;;;1.60;;
54143;SDS011;40050;47.324;18.792;2023-07-28T07:45:17;3.28;;;1.60;;
54143;SDS011;40050;47.324;18.792;2023-07-28T07:47:18;3.28;;;1.60;;
54143;SDS011;40050;47.324;18.792;2023-07-28T07:49:19;3.68;;;1.40;;
54143;SDS011;40050;47.324;18.792;2023-07-28T07:51:21;2.59;;;1.40;;
54143;SDS011;40050;47.324;18.792;2023-07-28T07:53:22;1.79;;;1.30;;
54143;SDS011;40050;47.324;18.792;2023-07-28T07:55:23;1.89;;;1.40;;
54143;SDS011;40050;47.324;18.792;2023-07-28T07:57:24;3.58;;;1.50;;
54143;SDS011;40050;47.324;18.792;2023-07-28T07:59:25;2.89;;;1.50;;
54143;SDS011;40050;47.324;18.792;2023-07-28T08:01:26;1.89;;;1.20;;
54143;SDS011;40050;47.324;18.792;2023-07-28T08:03:27;1.69;;;1.30;;
54143;SDS011;40050;47.324;18.792;2023-07-28T08:05:28;2.69;;;1.30;;
54143;SDS011;40050;47.324;18.792;2023-07-28T08:07:29;2.09;;;1.30;;
54143;SDS011;40050;47.324;18.792;2023-07-28T08:09:30;1.69;;;1.00;;
54143;SDS011;40050;47.324;18.792;2023-07-28T08:11:31;2.29;;;0.90;;
54143;SDS011;40050;47.324;18.792;2023-07-28T08:13:32;1.99;;;1.20;;
54143;SDS011;40050;47.324;18.792;2023-07-28T08:15:33;1.99;;;1.20;;
54143;SDS011;40050;47.324;18.792;2023-07-28T08:17:33;2.19;;;1.20;;
54143;SDS011;40050;47.324;18.792;2023-07-28T08:19:34;1.40;;;1.10;;
54143;SDS011;40050;47.324;18.792;2023-07-28T08:21:36;1.59;;;1.20;;
54143;SDS011;40050;47.324;18.792;2023-07-28T08:23:36;1.89;;;1.20;;
54143;SDS011;40050;47.324;18.792;2023-07-28T08:25:37;2.69;;;1.30;;
54143;SDS011;40050;47.324;18.792;2023-07-28T08:27:38;2.09;;;1.30;;
54143;SDS011;40050;47.324;18.792;2023-07-28T08:29:39;3.29;;;1.40;;
54143;SDS011;40050;47.324;18.792;2023-07-28T08:31:40;3.89;;;1.50;;
54143;SDS011;40050;47.324;18.792;2023-07-28T08:33:41;2.39;;;1.50;;
54143;SDS011;40050;47.324;18.792;2023-07-28T08:35:42;2.79;;;1.40;;
54143;SDS011;40050;47.324;18.792;2023-07-28T08:37:43;3.79;;;1.30;;
54143;SDS011;40050;47.324;18.792;2023-07-28T08:39:44;1.89;;;1.20;;
54143;SDS011;40050;47.324;18.792;2023-07-28T08:41:45;1.69;;;1.20;;
54143;SDS011;40050;47.324;18.792;2023-07-28T08:43:46;2.49;;;1.10;;
54143;SDS011;40050;47.324;18.792;2023-07-28T08:45:47;1.99;;;1.30;;
54143;SDS011;40050;47.324;18.792;2023-07-28T08:47:48;1.89;;;1.30;;
54143;SDS011;40050;47.324;18.792;2023-07-28T08:49:49;1.80;;;1.20;;
54143;SDS011;40050;47.324;18.792;2023-07-28T08:51:56;1.80;;;1.30;;
54143;SDS011;40050;47.324;18.792;2023-07-28T08:53:53;2.89;;;1.10;;
54143;SDS011;40050;47.324;18.792;2023-07-28T08:55:54;1.69;;;1.10;;
54143;SDS011;40050;47.324;18.792;2023-07-28T08:57:55;1.60;;;1.10;;
54143;SDS011;40050;47.324;18.792;2023-07-28T08:59:57;2.19;;;1.30;;
54143;SDS011;40050;47.324;18.792;2023-07-28T09:01:59;3.89;;;1.30;;
54143;SDS011;40050;47.324;18.792;2023-07-28T09:04:00;1.70;;;1.10;;
54143;SDS011;40050;47.324;18.792;2023-07-28T09:06:04;2.99;;;1.20;;
54143;SDS011;40050;47.324;18.792;2023-07-28T09:08:06;4.39;;;1.40;;
54143;SDS011;40050;47.324;18.792;2023-07-28T09:10:07;1.69;;;1.30;;
54143;SDS011;40050;47.324;18.792;2023-07-28T09:12:23;2.89;;;1.30;;
54143;SDS011;40050;47.324;18.792;2023-07-28T09:14:22;2.59;;;1.20;;
54143;SDS011;40050;47.324;18.792;2023-07-28T09:16:23;1.49;;;1.20;;
54143;SDS011;40050;47.324;18.792;2023-07-28T09:18:24;3.39;;;1.20;;
54143;SDS011;40050;47.324;18.792;2023-07-28T09:20:25;2.09;;;1.00;;
54143;SDS011;40050;47.324;18.792;2023-07-28T09:22:30;3.09;;;1.30;;
54143;SDS011;40050;47.324;18.792;2023-07-28T09:24:32;2.79;;;1.30;;
54143;SDS011;40050;47.324;18.792;2023-07-28T09:26:36;2.79;;;1.30;;
54143;SDS011;40050;47.324;18.792;2023-07-28T09:28:37;1.79;;;1.20;;
54143;SDS011;40050;47.324;18.792;2023-07-28T09:30:48;1.30;;;1.10;;
54143;SDS011;40050;47.324;18.792;2023-07-28T09:32:37;2.29;;;1.20;;
54143;SDS011;40050;47.324;18.792;2023-07-28T09:34:39;2.69;;;1.10;;
54143;SDS011;40050;47.324;18.792;2023-07-28T09:36:44;2.59;;;1.30;;
54143;SDS011;40050;47.324;18.792;2023-07-28T09:38:45;1.60;;;1.20;;
54143;SDS011;40050;47.324;18.792;2023-07-28T09:40:48;1.99;;;1.20;;
54143;SDS011;40050;47.324;18.792;2023-07-28T09:42:49;4.59;;;1.30;;
54143;SDS011;40050;47.324;18.792;2023-07-28T09:44:50;2.09;;;1.40;;
54143;SDS011;40050;47.324;18.792;2023-07-28T09:46:56;2.29;;;1.40;;
54143;SDS011;40050;47.324;18.792;2023-07-28T09:48:54;2.29;;;1.30;;
54143;SDS011;40050;47.324;18.792;2023-07-28T09:50:54;1.50;;;1.10;;
54143;SDS011;40050;47.324;18.792;2023-07-28T09:52:58;1.79;;;1.30;;
54143;SDS011;40050;47.324;18.792;2023-07-28T09:55:05;1.50;;;1.20;;
54143;SDS011;40050;47.324;18.792;2023-07-28T09:57:03;2.99;;;1.50;;
54143;SDS011;40050;47.324;18.792;2023-07-28T09:59:07;1.69;;;1.30;;
54143;SDS011;40050;47.324;18.792;2023-07-28T10:01:06;4.19;;;1.40;;
54143;SDS011;40050;47.324;18.792;2023-07-28T10:03:07;3.69;;;1.40;;
54143;SDS011;40050;47.324;18.792;2023-07-28T10:05:08;2.79;;;1.40;;
54143;SDS011;40050;47.324;18.792;2023-07-28T10:07:09;2.79;;;1.40;;
54143;SDS011;40050;47.324;18.792;2023-07-28T10:09:11;3.39;;;1.40;;
54143;SDS011;40050;47.324;18.792;2023-07-28T10:11:12;1.79;;;1.20;;
54143;SDS011;40050;47.324;18.792;2023-07-28T10:13:23;3.29;;;1.30;;
54143;SDS011;40050;47.324;18.792;2023-07-28T10:15:32;1.80;;;1.30;;
54143;SDS011;40050;47.324;18.792;2023-07-28T10:17:32;1.70;;;1.10;;
54143;SDS011;40050;47.324;18.792;2023-07-28T10:19:37;2.69;;;1.30;;
54143;SDS011;40050;47.324;18.792;2023-07-28T10:21:41;2.19;;;1.40;;
54143;SDS011;40050;47.324;18.792;2023-07-28T10:23:43;3.39;;;1.60;;
54143;SDS011;40050;47.324;18.792;2023-07-28T10:26:01;4.39;;;1.40;;
54143;SDS011;40050;47.324;18.792;2023-07-28T10:28:06;2.69;;;1.50;;
54143;SDS011;40050;47.324;18.792;2023-07-28T10:30:12;2.09;;;1.30;;
54143;SDS011;40050;47.324;18.792;2023-07-28T10:32:25;3.09;;;1.10;;
54143;SDS011;40050;47.324;18.792;2023-07-28T10:34:21;2.49;;;1.40;;
54143;SDS011;40050;47.324;18.792;2023-07-28T10:38:36;1.80;;;1.30;;
54143;SDS011;40050;47.324;18.792;2023-07-28T10:40:37;2.29;;;1.30;;
54143;SDS011;40050;47.324;18.792;2023-07-28T10:42:40;1.70;;;1.20;;
54143;SDS011;40050;47.324;18.792;2023-07-28T10:44:41;2.59;;;1.30;;
54143;SDS011;40050;47.324;18.792;2023-07-28T10:46:49;2.59;;;1.40;;
54143;SDS011;40050;47.324;18.792;2023-07-28T10:48:50;2.19;;;1.40;;
54143;SDS011;40050;47.324;18.792;2023-07-28T10:50:51;3.29;;;1.30;;
54143;SDS011;40050;47.324;18.792;2023-07-28T10:52:54;1.60;;;1.20;;
54143;SDS011;40050;47.324;18.792;2023-07-28T10:54:55;1.90;;;1.00;;
54143;SDS011;40050;47.324;18.792;2023-07-28T10:56:56;3.09;;;1.20;;
54143;SDS011;40050;47.324;18.792;2023-07-28T10:59:04;4.19;;;1.30;;
54143;SDS011;40050;47.324;18.792;2023-07-28T11:00:58;2.19;;;1.30;;
54143;SDS011;40050;47.324;18.792;2023-07-28T11:02:59;5.29;;;1.20;;
54143;SDS011;40050;47.324;18.792;2023-07-28T11:05:04;3.49;;;1.20;;
54143;SDS011;40050;47.324;18.792;2023-07-28T11:07:01;2.49;;;1.30;;
54143;SDS011;40050;47.324;18.792;2023-07-28T11:09:05;1.50;;;1.10;;
54143;SDS011;40050;47.324;18.792;2023-07-28T11:11:04;1.90;;;1.40;;
54143;SDS011;40050;47.324;18.792;2023-07-28T11:13:05;3.09;;;1.20;;
54143;SDS011;40050;47.324;18.792;2023-07-28T11:15:06;3.79;;;1.40;;
54143;SDS011;40050;47.324;18.792;2023-07-28T11:17:08;2.49;;;1.20;;
54143;SDS011;40050;47.324;18.792;2023-07-28T11:19:09;1.80;;;1.10;;
54143;SDS011;40050;47.324;18.792;2023-07-28T11:21:09;4.19;;;1.40;;
54143;SDS011;40050;47.324;18.792;2023-07-28T11:23:13;2.40;;;1.30;;
54143;SDS011;40050;47.324;18.792;2023-07-28T11:25:11;3.89;;;1.10;;
54143;SDS011;40050;47.324;18.792;2023-07-28T11:27:12;2.10;;;1.20;;
54143;SDS011;40050;47.324;18.792;2023-07-28T11:29:14;3.19;;;1.10;;
54143;SDS011;40050;47.324;18.792;2023-07-28T11:31:15;4.19;;;1.30;;
54143;SDS011;40050;47.324;18.792;2023-07-28T11:33:17;1.40;;;1.10;;
54143;SDS011;40050;47.324;18.792;2023-07-28T11:35:20;1.70;;;1.20;;
54143;SDS011;40050;47.324;18.792;2023-07-28T11:37:20;2.59;;;1.20;;
54143;SDS011;40050;47.324;18.792;2023-07-28T11:39:21;2.20;;;1.30;;
54143;SDS011;40050;47.324;18.792;2023-07-28T11:41:23;1.90;;;1.20;;
54143;SDS011;40050;47.324;18.792;2023-07-28T11:43:25;3.09;;;1.20;;
54143;SDS011;40050;47.324;18.792;2023-07-28T11:45:26;1.40;;;1.30;;
54143;SDS011;40050;47.324;18.792;2023-07-28T11:47:27;3.39;;;1.50;;
54143;SDS011;40050;47.324;18.792;2023-07-28T11:49:45;2.79;;;1.20;;
54143;SDS011;40050;47.324;18.792;2023-07-28T11:51:38;2.79;;;1.30;;
54143;SDS011;40050;47.324;18.792;2023-07-28T11:53:42;1.70;;;1.20;;
54143;SDS011;40050;47.324;18.792;2023-07-28T11:55:43;3.19;;;1.30;;
54143;SDS011;40050;47.324;18.792;2023-07-28T11:57:43;2.09;;;1.10;;
54143;SDS011;40050;47.324;18.792;2023-07-28T11:59:48;1.70;;;1.10;;
54143;SDS011;40050;47.324;18.792;2023-07-28T12:01:53;1.70;;;1.30;;